createdAt,value
2018-01-03T00:01:29.926Z,99215
2018-01-03T00:03:58.345Z,99206
2018-01-03T00:06:26.489Z,99176
2018-01-03T00:08:55.536Z,99186
2018-01-03T00:11:23.890Z,99174
2018-01-03T00:13:52.096Z,99155
2018-01-03T00:16:20.434Z,99150
2018-01-03T00:18:48.662Z,99138
2018-01-03T00:21:16.815Z,99134
2018-01-03T00:23:45.272Z,99119
2018-01-03T00:26:13.664Z,99107
2018-01-03T00:28:41.992Z,99103
2018-01-03T00:31:10.116Z,99090
2018-01-03T00:33:38.319Z,99078
2018-01-03T00:36:06.581Z,99073
2018-01-03T00:38:34.785Z,99058
2018-01-03T00:41:03.201Z,99055
2018-01-03T00:43:32.434Z,99036
2018-01-03T00:46:01.375Z,99013
2018-01-03T00:48:30.604Z,99019
2018-01-03T00:50:58.766Z,99007
2018-01-03T00:53:26.941Z,99002
2018-01-03T00:55:55.092Z,98997
2018-01-03T00:58:23.228Z,98984
2018-01-03T01:00:51.373Z,98975
2018-01-03T01:03:19.960Z,98980
2018-01-03T01:05:48.130Z,98972
2018-01-03T01:08:16.839Z,98955
2018-01-03T01:10:44.956Z,98943
2018-01-03T01:13:13.187Z,98938
2018-01-03T01:15:41.362Z,98928
2018-01-03T01:18:09.681Z,98918
2018-01-03T01:20:38.080Z,98915
2018-01-03T01:23:06.602Z,98906
2018-01-03T01:25:34.918Z,98897
2018-01-03T01:28:03.092Z,98879
2018-01-03T01:30:31.212Z,98866
2018-01-03T01:33:00.121Z,98868
2018-01-03T01:35:28.280Z,98852
2018-01-03T01:37:56.409Z,98839
2018-01-03T01:40:24.976Z,98826
2018-01-03T01:42:53.790Z,98815
2018-01-03T01:45:22.145Z,98804
2018-01-03T01:47:51.092Z,98803
2018-01-03T01:50:19.281Z,98787
2018-01-03T01:52:47.448Z,98797
2018-01-03T01:55:16.268Z,98775
2018-01-03T01:57:44.768Z,98768
2018-01-03T02:00:13.161Z,98736
2018-01-03T02:02:42.044Z,98733
2018-01-03T02:05:10.222Z,98735
2018-01-03T02:07:38.581Z,98717
2018-01-03T02:10:07.121Z,98707
2018-01-03T02:12:35.725Z,98708
2018-01-03T02:15:04.590Z,98684
2018-01-03T02:17:32.748Z,98674
2018-01-03T02:20:01.805Z,98662
2018-01-03T02:22:29.996Z,98646
2018-01-03T02:24:58.394Z,98644
2018-01-03T02:27:27.860Z,98637
2018-01-03T02:29:56.364Z,98614
2018-01-03T02:32:25.317Z,98615
2018-01-03T02:34:53.835Z,98598
2018-01-03T02:37:21.973Z,98583
2018-01-03T02:39:50.545Z,98550
2018-01-03T02:42:18.708Z,98560
2018-01-03T02:44:47.009Z,98528
2018-01-03T02:47:15.792Z,98515
2018-01-03T02:49:43.973Z,98494
2018-01-03T02:52:12.289Z,98477
2018-01-03T02:54:40.944Z,98462
2018-01-03T02:57:09.102Z,98447
2018-01-03T02:59:37.286Z,98437
2018-01-03T03:02:05.460Z,98423
2018-01-03T03:04:33.609Z,98402
2018-01-03T03:07:01.765Z,98401
2018-01-03T03:09:30.628Z,98376
2018-01-03T03:11:58.751Z,98374
2018-01-03T03:14:26.865Z,98362
2018-01-03T03:16:56.677Z,98336
2018-01-03T03:19:27.264Z,98327
2018-01-03T03:21:55.497Z,98319
2018-01-03T03:24:24.602Z,98316
2018-01-03T03:26:53.092Z,98294
2018-01-03T03:29:21.992Z,98287
2018-01-03T03:31:51.116Z,98252
2018-01-03T03:34:19.453Z,98248
2018-01-03T03:36:48.366Z,98216
2018-01-03T03:39:16.501Z,98201
2018-01-03T03:41:45.730Z,98183
2018-01-03T03:44:14.761Z,98178
2018-01-03T03:46:42.883Z,98164
2018-01-03T03:49:11.052Z,98141
2018-01-03T03:51:39.944Z,98138
2018-01-03T03:54:08.296Z,98123
2018-01-03T03:56:36.692Z,98097
2018-01-03T03:59:05.860Z,98080
2018-01-03T04:01:34.903Z,98054
2018-01-03T04:04:03.061Z,98046
2018-01-03T04:06:31.200Z,98047
2018-01-03T04:09:00.022Z,98027
2018-01-03T04:11:28.438Z,98009
2018-01-03T04:13:56.738Z,97989
2018-01-03T04:16:24.884Z,97973
2018-01-03T04:18:52.992Z,97939
2018-01-03T04:21:21.994Z,97926
2018-01-03T04:23:51.327Z,97892
2018-01-03T04:26:20.224Z,97882
2018-01-03T04:28:49.111Z,97865
2018-01-03T04:31:17.873Z,97874
2018-01-03T04:33:46.003Z,97844
2018-01-03T04:36:14.388Z,97811
2018-01-03T04:38:42.505Z,97790
2018-01-03T04:41:10.814Z,97747
2018-01-03T04:43:38.945Z,97758
2018-01-03T04:46:07.821Z,97725
2018-01-03T04:48:36.205Z,97715
2018-01-03T04:51:04.317Z,97716
2018-01-03T04:53:32.754Z,97698
2018-01-03T04:56:00.888Z,97706
2018-01-03T04:58:29.248Z,97700
2018-01-03T05:00:58.058Z,97682
2018-01-03T05:03:26.865Z,97660
2018-01-03T05:05:54.960Z,97666
2018-01-03T05:08:23.335Z,97642
2018-01-03T05:10:51.488Z,97633
2018-01-03T05:13:19.624Z,97610
2018-01-03T05:15:49.962Z,97613
2018-01-03T05:18:18.853Z,97605
2018-01-03T05:20:47.741Z,97577
2018-01-03T05:23:17.061Z,97597
2018-01-03T05:25:45.189Z,97600
2018-01-03T05:28:13.360Z,97588
2018-01-03T05:30:41.708Z,97570
2018-01-03T05:33:09.896Z,97559
2018-01-03T05:35:38.041Z,97546
2018-01-03T05:38:06.564Z,97531
2018-01-03T05:40:34.732Z,97513
2018-01-03T05:43:02.999Z,97510
2018-01-03T05:45:31.379Z,97504
2018-01-03T05:47:59.513Z,97509
2018-01-03T05:50:27.660Z,97493
2018-01-03T05:52:55.800Z,97473
2018-01-03T05:55:24.192Z,97464
2018-01-03T05:57:52.464Z,97457
2018-01-03T06:00:20.836Z,97439
2018-01-03T06:02:49.484Z,97453
2018-01-03T06:05:18.336Z,97419
2018-01-03T06:07:46.735Z,97439
2018-01-03T06:10:15.886Z,97467
2018-01-03T06:12:44.095Z,97442
2018-01-03T06:15:12.316Z,97426
2018-01-03T06:17:40.465Z,97431
2018-01-03T06:20:08.681Z,97418
2018-01-03T06:22:36.825Z,97408
2018-01-03T06:25:05.024Z,97395
2018-01-03T06:27:33.521Z,97405
2018-01-03T06:30:02.689Z,97406
2018-01-03T06:32:31.080Z,97406
2018-01-03T06:35:00.040Z,97390
2018-01-03T06:37:28.921Z,97398
2018-01-03T06:39:57.940Z,97386
2018-01-03T06:42:26.190Z,97387
2018-01-03T06:44:57.452Z,97394
2018-01-03T06:47:25.771Z,97394
2018-01-03T06:49:54.165Z,97393
2018-01-03T06:52:22.361Z,97374
2018-01-03T06:54:50.681Z,97392
2018-01-03T06:57:18.940Z,97379
2018-01-03T06:59:47.285Z,97390
2018-01-03T07:02:15.598Z,97381
2018-01-03T07:04:44.601Z,97389
2018-01-03T07:07:13.192Z,97383
2018-01-03T07:09:41.910Z,97394
2018-01-03T07:12:10.093Z,97393
2018-01-03T07:14:38.321Z,97389
2018-01-03T07:17:06.656Z,97392
2018-01-03T07:19:36.254Z,97393
2018-01-03T07:22:04.398Z,97389
2018-01-03T07:24:32.512Z,97387
2018-01-03T07:27:00.656Z,97397
2018-01-03T07:29:28.777Z,97404
2018-01-03T07:31:58.066Z,97406
2018-01-03T07:34:26.194Z,97399
2018-01-03T07:36:54.392Z,97394
2018-01-03T07:39:22.540Z,97398
2018-01-03T07:41:50.680Z,97399
2018-01-03T07:44:18.809Z,97405
2018-01-03T07:46:47.693Z,97409
2018-01-03T07:49:15.815Z,97400
2018-01-03T07:51:44.673Z,97397
2018-01-03T07:54:12.789Z,97394
2018-01-03T07:56:41.705Z,97389
2018-01-03T07:59:10.101Z,97393
2018-01-03T08:01:38.273Z,97376
2018-01-03T08:04:06.413Z,97366
2018-01-03T08:06:35.292Z,97359
2018-01-03T08:09:05.409Z,97356
2018-01-03T08:11:34.302Z,97356
2018-01-03T08:14:03.205Z,97355
2018-01-03T08:16:31.348Z,97350
2018-01-03T08:19:01.016Z,97348
2018-01-03T08:21:29.473Z,97358
2018-01-03T08:23:57.621Z,97362
2018-01-03T08:26:27.045Z,97373
2018-01-03T08:28:55.177Z,97371
2018-01-03T08:31:23.526Z,97367
2018-01-03T08:33:51.812Z,97369
2018-01-03T08:36:19.976Z,97381
2018-01-03T08:38:48.248Z,97382
2018-01-03T08:41:16.829Z,97382
2018-01-03T08:43:45.008Z,97385
2018-01-03T08:46:13.311Z,97397
2018-01-03T08:48:41.441Z,97402
2018-01-03T08:51:09.581Z,97391
2018-01-03T08:53:37.817Z,97387
2018-01-03T08:56:05.980Z,97391
2018-01-03T08:58:34.436Z,97397
2018-01-03T09:01:03.453Z,97398
2018-01-03T09:03:31.597Z,97406
2018-01-03T09:05:59.736Z,97402
2018-01-03T09:08:28.038Z,97399
2018-01-03T09:10:56.408Z,97396
2018-01-03T09:13:24.600Z,97403
2018-01-03T09:15:52.742Z,97408
2018-01-03T09:18:20.869Z,97414
2018-01-03T09:20:48.984Z,97422
2018-01-03T09:23:17.072Z,97420
2018-01-03T09:25:45.225Z,97432
2018-01-03T09:28:13.472Z,97426
2018-01-03T09:30:41.621Z,97437
2018-01-03T09:33:10.696Z,97438
2018-01-03T09:35:39.273Z,97443
2018-01-03T09:38:07.418Z,97443
2018-01-03T09:40:35.600Z,97446
2018-01-03T09:43:04.063Z,97440
2018-01-03T09:45:32.208Z,97446
2018-01-03T09:48:01.096Z,97441
2018-01-03T09:50:29.985Z,97435
2018-01-03T09:52:58.840Z,97447
2018-01-03T09:55:27.200Z,97451
2018-01-03T09:57:55.761Z,97466
2018-01-03T10:00:23.904Z,97475
2018-01-03T10:02:52.973Z,97468
2018-01-03T10:05:21.145Z,97479
2018-01-03T10:07:49.366Z,97477
2018-01-03T10:10:17.755Z,97478
2018-01-03T10:12:45.904Z,97481
2018-01-03T10:15:15.065Z,97495
2018-01-03T10:17:43.219Z,97484
2018-01-03T10:20:12.114Z,97495
2018-01-03T10:22:40.265Z,97496
2018-01-03T10:25:08.444Z,97495
2018-01-03T10:27:36.646Z,97483
2018-01-03T10:30:05.229Z,97502
2018-01-03T10:32:34.092Z,97502
2018-01-03T10:35:02.468Z,97497
2018-01-03T10:37:31.668Z,97495
2018-01-03T10:40:00.922Z,97511
2018-01-03T10:42:30.708Z,97515
2018-01-03T10:44:59.441Z,97529
2018-01-03T10:47:27.568Z,97514
2018-01-03T10:49:56.979Z,97527
2018-01-03T10:52:25.192Z,97523
2018-01-03T10:54:54.380Z,97530
2018-01-03T10:57:23.743Z,97520
2018-01-03T10:59:52.497Z,97531
2018-01-03T11:02:21.370Z,97528
2018-01-03T11:04:50.015Z,97528
2018-01-03T11:07:18.265Z,97541
2018-01-03T11:09:46.704Z,97540
2018-01-03T11:12:14.881Z,97534
2018-01-03T11:14:43.005Z,97531
2018-01-03T11:17:11.772Z,97529
2018-01-03T11:19:39.904Z,97517
2018-01-03T11:22:08.309Z,97521
2018-01-03T11:24:36.481Z,97513
2018-01-03T11:27:06.356Z,97514
2018-01-03T11:29:34.513Z,97517
2018-01-03T11:32:02.955Z,97511
2018-01-03T11:34:31.933Z,97513
2018-01-03T11:37:00.410Z,97516
2018-01-03T11:39:28.648Z,97500
2018-01-03T11:41:57.132Z,97497
2018-01-03T11:44:25.818Z,97498
2018-01-03T11:46:54.601Z,97495
2018-01-03T11:49:22.745Z,97495
2018-01-03T11:51:51.712Z,97483
2018-01-03T11:54:19.912Z,97475
2018-01-03T11:56:49.352Z,97465
2018-01-03T11:59:16.021Z,97471
2018-01-03T12:01:44.521Z,97469
2018-01-03T12:04:13.784Z,97432
2018-01-03T12:06:42.527Z,97450
2018-01-03T12:09:11.628Z,97447
2018-01-03T12:11:39.769Z,97430
2018-01-03T12:14:07.852Z,97442
2018-01-03T12:16:36.713Z,97432
2018-01-03T12:19:05.187Z,97436
2018-01-03T12:21:33.326Z,97429
2018-01-03T12:24:01.439Z,97428
2018-01-03T12:26:29.574Z,97418
2018-01-03T12:28:57.908Z,97421
2018-01-03T12:31:26.652Z,97410
2018-01-03T12:33:54.948Z,97408
2018-01-03T12:36:23.120Z,97405
2018-01-03T12:38:51.350Z,97398
2018-01-03T12:41:20.822Z,97375
2018-01-03T12:43:49.056Z,97395
2018-01-03T12:46:17.401Z,97397
2018-01-03T12:48:46.002Z,97389
2018-01-03T12:51:15.565Z,97397
2018-01-03T12:53:43.960Z,97384
2018-01-03T12:56:12.975Z,97383
2018-01-03T12:58:42.317Z,97378
2018-01-03T13:01:10.426Z,97369
2018-01-03T13:03:38.565Z,97367
2018-01-03T13:06:06.685Z,97377
2018-01-03T13:08:35.472Z,97373
2018-01-03T13:11:03.665Z,97360
2018-01-03T13:13:32.781Z,97354
2018-01-03T13:16:00.917Z,97347
2018-01-03T13:18:30.267Z,97350
2018-01-03T13:20:59.161Z,97349
2018-01-03T13:23:27.301Z,97352
2018-01-03T13:25:55.613Z,97339
2018-01-03T13:28:23.764Z,97329
2018-01-03T13:30:51.912Z,97332
2018-01-03T13:33:20.063Z,97333
2018-01-03T13:35:50.301Z,97316
2018-01-03T13:38:20.073Z,97311
2018-01-03T13:40:48.227Z,97327
2018-01-03T13:43:16.681Z,97314
2018-01-03T13:45:45.925Z,97316
2018-01-03T13:48:14.097Z,97310
2018-01-03T13:50:42.228Z,97312
2018-01-03T13:53:11.097Z,97321
2018-01-03T13:55:39.267Z,97306
2018-01-03T13:58:08.158Z,97308
2018-01-03T14:00:36.473Z,97291
2018-01-03T14:03:05.011Z,97276
2018-01-03T14:05:33.129Z,97300
2018-01-03T14:08:01.986Z,97307
2018-01-03T14:10:30.180Z,97307
2018-01-03T14:12:58.301Z,97325
2018-01-03T14:15:26.449Z,97315
2018-01-03T14:17:54.829Z,97318
2018-01-03T14:20:23.081Z,97296
2018-01-03T14:22:53.048Z,97324
2018-01-03T14:25:21.500Z,97331
2018-01-03T14:27:49.992Z,97319
2018-01-03T14:30:18.197Z,97329
2018-01-03T14:32:46.778Z,97341
2018-01-03T14:35:14.892Z,97364
2018-01-03T14:37:44.321Z,97360
2018-01-03T14:40:12.492Z,97366
2018-01-03T14:42:40.905Z,97359
2018-01-03T14:45:09.052Z,97365
2018-01-03T14:47:38.160Z,97368
2018-01-03T14:50:06.296Z,97393
2018-01-03T14:52:35.642Z,97393
2018-01-03T14:55:03.797Z,97399
2018-01-03T14:57:34.811Z,97405
2018-01-03T15:00:03.981Z,97400
2018-01-03T15:02:32.126Z,97401
2018-01-03T15:05:00.727Z,97418
2018-01-03T15:07:28.969Z,97414
2018-01-03T15:09:57.116Z,97423
2018-01-03T15:12:26.376Z,97422
2018-01-03T15:14:54.656Z,97434
2018-01-03T15:17:22.809Z,97444
2018-01-03T15:19:50.941Z,97439
2018-01-03T15:22:20.269Z,97446
2018-01-03T15:24:48.770Z,97443
2018-01-03T15:27:16.941Z,97463
2018-01-03T15:29:45.193Z,97461
2018-01-03T15:32:13.490Z,97462
2018-01-03T15:34:41.681Z,97467
2018-01-03T15:37:09.839Z,97481
2018-01-03T15:39:38.276Z,97485
2018-01-03T15:42:06.433Z,97492
2018-01-03T15:44:34.573Z,97476
2018-01-03T15:47:02.711Z,97484
2018-01-03T15:49:31.586Z,97487
2018-01-03T15:51:59.725Z,97504
2018-01-03T15:54:27.856Z,97513
2018-01-03T15:56:55.973Z,97503
2018-01-03T15:59:24.115Z,97533
2018-01-03T16:01:52.273Z,97534
2018-01-03T16:04:20.686Z,97532
2018-01-03T16:06:49.049Z,97537
2018-01-03T16:09:17.240Z,97536
2018-01-03T16:11:45.396Z,97542
2018-01-03T16:14:13.528Z,97544
2018-01-03T16:16:41.701Z,97561
2018-01-03T16:19:09.832Z,97569
2018-01-03T16:21:38.409Z,97558
2018-01-03T16:24:07.859Z,97564
2018-01-03T16:26:36.129Z,97568
2018-01-03T16:29:04.873Z,97564
2018-01-03T16:31:33.245Z,97586
2018-01-03T16:34:01.373Z,97584
2018-01-03T16:36:29.749Z,97577
2018-01-03T16:38:58.269Z,97578
2018-01-03T16:41:26.447Z,97589
2018-01-03T16:43:54.754Z,97590
2018-01-03T16:46:23.108Z,97612
2018-01-03T16:48:51.310Z,97589
2018-01-03T16:51:19.711Z,97577
2018-01-03T16:53:47.832Z,97585
2018-01-03T16:56:17.072Z,97597
2018-01-03T16:58:45.198Z,97583
2018-01-03T17:01:14.237Z,97584
2018-01-03T17:03:42.817Z,97604
2018-01-03T17:06:11.008Z,97583
2018-01-03T17:08:39.172Z,97586
2018-01-03T17:11:07.417Z,97604
2018-01-03T17:13:36.604Z,97612
2018-01-03T17:16:04.772Z,97615
2018-01-03T17:18:33.687Z,97593
2018-01-03T17:21:01.844Z,97604
2018-01-03T17:23:31.216Z,97597
2018-01-03T17:25:59.440Z,97615
2018-01-03T17:28:27.611Z,97609
2018-01-03T17:30:55.718Z,97622
2018-01-03T17:33:23.837Z,97626
2018-01-03T17:35:52.718Z,97616
2018-01-03T17:38:21.374Z,97629
2018-01-03T17:40:50.037Z,97638
2018-01-03T17:43:18.208Z,97653
2018-01-03T17:45:46.384Z,97658
2018-01-03T17:48:14.869Z,97633
2018-01-03T17:50:43.431Z,97671
2018-01-03T17:53:11.891Z,97674
2018-01-03T17:55:41.296Z,97679
2018-01-03T17:58:10.180Z,97688
2018-01-03T18:00:38.474Z,97688
2018-01-03T18:03:06.620Z,97712
2018-01-03T18:05:34.805Z,97708
2018-01-03T18:08:04.159Z,97716
2018-01-03T18:10:32.288Z,97727
2018-01-03T18:13:01.584Z,97721
2018-01-03T18:15:29.757Z,97737
2018-01-03T18:17:59.498Z,97772
2018-01-03T18:20:27.668Z,97745
2018-01-03T18:22:55.816Z,97754
2018-01-03T18:25:23.982Z,97771
2018-01-03T18:27:52.851Z,97757
2018-01-03T18:30:21.005Z,97759
2018-01-03T18:32:49.561Z,97801
2018-01-03T18:35:18.669Z,97791
2018-01-03T18:37:48.150Z,97793
2018-01-03T18:40:17.021Z,97786
2018-01-03T18:42:45.144Z,97817
2018-01-03T18:45:13.288Z,97821
2018-01-03T18:47:42.153Z,97830
2018-01-03T18:50:10.457Z,97828
2018-01-03T18:52:38.613Z,97845
2018-01-03T18:55:07.321Z,97843
2018-01-03T18:57:36.237Z,97843
2018-01-03T19:00:05.043Z,97849
2018-01-03T19:02:33.166Z,97850
2018-01-03T19:05:01.298Z,97858
2018-01-03T19:07:29.437Z,97854
2018-01-03T19:09:57.573Z,97868
2018-01-03T19:12:25.713Z,97876
2018-01-03T19:14:53.889Z,97897
2018-01-03T19:17:22.029Z,97892
2018-01-03T19:19:50.604Z,97903
2018-01-03T19:22:18.767Z,97894
2018-01-03T19:24:47.625Z,97890
2018-01-03T19:27:15.773Z,97897
2018-01-03T19:29:43.920Z,97913
2018-01-03T19:32:12.073Z,97905
2018-01-03T19:34:40.273Z,97909
2018-01-03T19:37:08.480Z,97918
2018-01-03T19:39:36.654Z,97918
2018-01-03T19:42:04.852Z,97920
2018-01-03T19:44:33.939Z,97912
2018-01-03T19:47:02.208Z,97914
2018-01-03T19:49:30.354Z,97931
2018-01-03T19:51:59.472Z,97922
2018-01-03T19:54:27.646Z,97923
2018-01-03T19:56:55.773Z,97917
2018-01-03T19:59:24.645Z,97933
2018-01-03T20:01:52.775Z,97928
2018-01-03T20:04:21.120Z,97927
2018-01-03T20:06:50.497Z,97948
2018-01-03T20:09:19.221Z,97941
2018-01-03T20:11:47.342Z,97937
2018-01-03T20:14:15.485Z,97942
2018-01-03T20:16:44.248Z,97960
2018-01-03T20:19:12.400Z,97924
2018-01-03T20:21:40.613Z,97923
2018-01-03T20:24:08.737Z,97940
2018-01-03T20:26:37.493Z,97957
2018-01-03T20:29:05.628Z,97950
2018-01-03T20:31:34.973Z,97933
2018-01-03T20:34:03.263Z,97945
2018-01-03T20:36:31.412Z,97948
2018-01-03T20:38:59.589Z,97967
2018-01-03T20:41:27.733Z,97969
2018-01-03T20:43:56.606Z,97987
2018-01-03T20:46:24.751Z,97973
2018-01-03T20:48:52.885Z,97994
2018-01-03T20:51:21.021Z,97984
2018-01-03T20:53:49.569Z,97973
2018-01-03T20:56:17.979Z,97973
2018-01-03T20:58:46.113Z,97978
2018-01-03T21:01:14.289Z,97970
2018-01-03T21:03:42.460Z,97990
2018-01-03T21:06:10.865Z,97986
2018-01-03T21:08:39.326Z,98000
2018-01-03T21:11:08.254Z,98009
2018-01-03T21:13:36.416Z,98013
2018-01-03T21:16:04.613Z,98001
2018-01-03T21:18:32.780Z,98018
2018-01-03T21:21:01.677Z,98027
2018-01-03T21:23:29.814Z,98026
2018-01-03T21:25:58.122Z,98040
2018-01-03T21:28:26.355Z,98045
2018-01-03T21:30:54.480Z,98044
2018-01-03T21:33:22.889Z,97913
2018-01-03T21:35:52.286Z,98032
2018-01-03T21:38:21.435Z,98040
2018-01-03T21:40:49.571Z,98049
2018-01-03T21:43:17.957Z,98040
2018-01-03T21:45:46.117Z,98058
2018-01-03T21:48:15.313Z,98058
2018-01-03T21:50:44.532Z,98063
2018-01-03T21:53:12.720Z,98056
2018-01-03T21:55:40.896Z,98056
2018-01-03T21:58:09.032Z,98075
2018-01-03T22:00:37.189Z,98072
2018-01-03T22:03:05.862Z,98074
2018-01-03T22:05:34.641Z,98081
2018-01-03T22:08:02.772Z,98096
2018-01-03T22:10:30.910Z,98102
2018-01-03T22:12:59.769Z,98106
2018-01-03T22:15:28.544Z,98078
2018-01-03T22:17:57.420Z,98097
2018-01-03T22:20:25.689Z,98113
2018-01-03T22:22:54.577Z,98100
2018-01-03T22:25:24.054Z,98091
2018-01-03T22:27:52.181Z,98110
2018-01-03T22:30:20.333Z,98114
2018-01-03T22:32:48.468Z,98120
2018-01-03T22:35:16.612Z,98126
2018-01-03T22:37:45.660Z,98116
2018-01-03T22:40:14.528Z,98111
2018-01-03T22:42:42.685Z,98126
2018-01-03T22:45:10.856Z,98138
2018-01-03T22:47:39.049Z,98134
2018-01-03T22:50:08.501Z,98148
2018-01-03T22:52:36.734Z,98143
2018-01-03T22:55:06.079Z,98157
2018-01-03T22:57:34.312Z,98168
2018-01-03T23:00:03.349Z,98170
2018-01-03T23:02:31.789Z,98166
2018-01-03T23:05:00.699Z,98167
2018-01-03T23:07:29.741Z,98173
2018-01-03T23:09:59.247Z,98193
2018-01-03T23:12:27.660Z,98176
2018-01-03T23:14:55.829Z,98186
2018-01-03T23:17:24.309Z,98217
2018-01-03T23:19:52.841Z,98197
2018-01-03T23:22:21.113Z,98195
2018-01-03T23:24:49.434Z,98196
2018-01-03T23:27:17.593Z,98192
2018-01-03T23:29:45.975Z,98194
2018-01-03T23:32:14.256Z,98193
2018-01-03T23:34:42.509Z,98186
2018-01-03T23:37:11.129Z,98201
2018-01-03T23:39:39.273Z,98212
2018-01-03T23:42:07.889Z,98200
2018-01-03T23:44:36.229Z,98212
2018-01-03T23:47:05.406Z,98202
2018-01-03T23:49:34.373Z,98220
2018-01-03T23:52:02.745Z,98239
2018-01-03T23:54:30.915Z,98218
2018-01-03T23:56:59.792Z,98250
2018-01-03T23:59:28.053Z,98233
